createdAt,value
2018-06-23T00:00:30.695Z,12.32
2018-06-23T00:01:30.694Z,12.36
2018-06-23T00:02:30.691Z,12.29
2018-06-23T00:03:30.689Z,12.28
2018-06-23T00:04:30.686Z,12.24
2018-06-23T00:05:30.686Z,12.29
2018-06-23T00:06:30.683Z,12.28
2018-06-23T00:07:30.681Z,12.28
2018-06-23T00:08:30.679Z,12.27
2018-06-23T00:09:30.679Z,12.24
2018-06-23T00:10:30.674Z,12.31
2018-06-23T00:11:30.675Z,12.28
2018-06-23T00:12:30.670Z,12.22
2018-06-23T00:13:30.671Z,12.21
2018-06-23T00:14:30.666Z,12.18
2018-06-23T00:15:30.664Z,12.12
2018-06-23T00:16:30.662Z,12.13
2018-06-23T00:17:30.660Z,12.10
2018-06-23T00:18:30.657Z,12.10
2018-06-23T00:19:30.656Z,12.15
2018-06-23T00:20:30.654Z,11.97
2018-06-23T00:21:30.652Z,12.02
2018-06-23T00:22:30.648Z,12.04
2018-06-23T00:23:30.647Z,12.00
2018-06-23T00:24:30.645Z,12.04
2018-06-23T00:25:30.643Z,12.03
2018-06-23T00:26:30.638Z,11.95
2018-06-23T00:27:30.638Z,12.03
2018-06-23T00:28:30.636Z,12.03
2018-06-23T00:29:30.632Z,11.99
2018-06-23T00:30:30.631Z,11.94
2018-06-23T00:31:30.632Z,11.97
2018-06-23T00:32:30.626Z,11.95
2018-06-23T00:33:30.623Z,12.02
2018-06-23T00:34:30.622Z,12.04
2018-06-23T00:35:30.620Z,11.86
2018-06-23T00:36:30.616Z,11.90
2018-06-23T00:37:30.618Z,11.88
2018-06-23T00:38:30.611Z,11.91
2018-06-23T00:39:30.610Z,11.90
2018-06-23T00:40:30.607Z,11.87
2018-06-23T00:41:30.605Z,11.78
2018-06-23T00:42:30.601Z,11.88
2018-06-23T00:43:30.599Z,11.91
2018-06-23T00:44:30.598Z,11.97
2018-06-23T00:45:30.596Z,11.81
2018-06-23T00:46:30.595Z,11.87
2018-06-23T00:47:30.592Z,11.88
2018-06-23T00:48:30.589Z,11.95
2018-06-23T00:49:30.586Z,11.94
2018-06-23T00:50:30.584Z,11.95
2018-06-23T00:51:30.589Z,11.90
2018-06-23T00:52:30.579Z,11.91
2018-06-23T00:53:30.578Z,11.88
2018-06-23T00:54:30.574Z,11.80
2018-06-23T00:55:30.573Z,11.81
2018-06-23T00:56:30.570Z,11.81
2018-06-23T00:57:30.568Z,11.91
2018-06-23T00:58:30.566Z,11.81
2018-06-23T00:59:30.564Z,11.88
2018-06-23T01:00:30.562Z,11.86
2018-06-23T01:01:30.560Z,11.81
2018-06-23T01:02:30.557Z,11.81
2018-06-23T01:03:30.553Z,11.78
2018-06-23T01:04:30.554Z,11.84
2018-06-23T01:05:30.553Z,11.81
2018-06-23T01:06:30.549Z,11.86
2018-06-23T01:07:30.546Z,11.84
2018-06-23T01:08:30.543Z,11.84
2018-06-23T01:09:30.542Z,11.70
2018-06-23T01:10:30.538Z,11.70
2018-06-23T01:11:30.537Z,11.80
2018-06-23T01:12:30.534Z,11.72
2018-06-23T01:13:30.533Z,11.68
2018-06-23T01:14:30.529Z,11.69
2018-06-23T01:15:30.527Z,11.69
2018-06-23T01:16:30.526Z,11.66
2018-06-23T01:17:30.523Z,11.66
2018-06-23T01:18:30.521Z,11.65
2018-06-23T01:19:30.518Z,11.66
2018-06-23T01:20:30.516Z,11.62
2018-06-23T01:21:30.515Z,11.59
2018-06-23T01:22:30.511Z,11.55
2018-06-23T01:23:30.509Z,11.57
2018-06-23T01:24:30.505Z,11.51
2018-06-23T01:25:30.504Z,11.60
2018-06-23T01:26:30.501Z,11.66
2018-06-23T01:27:30.501Z,11.62
2018-06-23T01:28:30.496Z,11.62
2018-06-23T01:29:30.495Z,11.57
2018-06-23T01:30:30.493Z,11.59
2018-06-23T01:31:30.489Z,11.60
2018-06-23T01:32:30.487Z,11.52
2018-06-23T01:33:30.487Z,11.59
2018-06-23T01:34:30.481Z,11.45
2018-06-23T01:35:30.478Z,11.52
2018-06-23T01:36:30.477Z,11.47
2018-06-23T01:37:30.475Z,11.50
2018-06-23T01:38:30.476Z,11.50
2018-06-23T01:39:30.470Z,11.50
2018-06-23T01:40:30.469Z,11.41
2018-06-23T01:41:30.467Z,11.32
2018-06-23T01:42:30.463Z,11.37
2018-06-23T01:43:30.461Z,11.32
2018-06-23T01:44:30.458Z,11.41
2018-06-23T01:45:30.455Z,11.45
2018-06-23T01:46:30.452Z,11.37
2018-06-23T01:47:30.450Z,11.43
2018-06-23T01:48:30.448Z,11.50
2018-06-23T01:49:30.445Z,11.45
2018-06-23T01:50:30.443Z,11.40
2018-06-23T01:51:30.441Z,11.36
2018-06-23T01:52:30.437Z,11.40
2018-06-23T01:53:30.435Z,11.30
2018-06-23T01:54:30.432Z,11.33
2018-06-23T01:55:30.429Z,11.40
2018-06-23T01:56:30.428Z,11.32
2018-06-23T01:57:30.426Z,11.37
2018-06-23T01:58:30.421Z,11.35
2018-06-23T01:59:30.421Z,11.22
2018-06-23T02:00:30.417Z,11.27
2018-06-23T02:01:30.415Z,11.35
2018-06-23T02:02:30.412Z,11.41
2018-06-23T02:03:30.411Z,11.35
2018-06-23T02:04:30.407Z,11.37
2018-06-23T02:05:30.405Z,11.37
2018-06-23T02:06:30.402Z,11.40
2018-06-23T02:07:30.402Z,11.37
2018-06-23T02:08:30.396Z,11.35
2018-06-23T02:09:30.394Z,11.41
2018-06-23T02:10:30.394Z,11.41
2018-06-23T02:11:30.390Z,11.45
2018-06-23T02:12:30.387Z,11.47
2018-06-23T02:13:30.384Z,11.37
2018-06-23T02:14:30.383Z,11.37
2018-06-23T02:15:30.378Z,11.36
2018-06-23T02:16:30.375Z,11.27
2018-06-23T02:17:30.375Z,11.27
2018-06-23T02:18:30.371Z,11.18
2018-06-23T02:19:30.367Z,11.26
2018-06-23T02:20:30.365Z,11.33
2018-06-23T02:21:30.362Z,11.27
2018-06-23T02:22:30.358Z,11.26
2018-06-23T02:23:30.357Z,11.32
2018-06-23T02:24:30.359Z,11.26
2018-06-23T02:25:30.355Z,11.23
2018-06-23T02:26:30.349Z,11.23
2018-06-23T02:27:30.346Z,11.23
2018-06-23T02:28:30.344Z,11.22
2018-06-23T02:29:30.341Z,11.10
2018-06-23T02:30:30.338Z,11.14
2018-06-23T02:31:30.341Z,11.18
2018-06-23T02:32:30.332Z,11.14
2018-06-23T02:33:30.329Z,11.14
2018-06-23T02:34:30.330Z,11.14
2018-06-23T02:35:30.326Z,11.12
2018-06-23T02:36:30.321Z,11.15
2018-06-23T02:37:30.319Z,11.15
2018-06-23T02:38:30.315Z,11.15
2018-06-23T02:39:30.314Z,11.18
2018-06-23T02:40:30.310Z,11.19
2018-06-23T02:41:30.307Z,11.19
2018-06-23T02:42:30.306Z,11.14
2018-06-23T02:43:30.302Z,11.19
2018-06-23T02:44:30.309Z,11.25
2018-06-23T02:45:30.297Z,11.30
2018-06-23T02:46:30.302Z,11.35
2018-06-23T02:47:30.291Z,11.32
2018-06-23T02:48:30.288Z,11.36
2018-06-23T02:49:30.287Z,11.23
2018-06-23T02:50:30.283Z,11.40
2018-06-23T02:51:30.279Z,11.47
2018-06-23T02:52:30.277Z,11.44
2018-06-23T02:53:30.277Z,11.43
2018-06-23T02:54:30.271Z,11.47
2018-06-23T02:55:30.269Z,11.43
2018-06-23T02:56:30.266Z,11.44
2018-06-23T02:57:30.264Z,11.48
2018-06-23T02:58:30.261Z,11.47
2018-06-23T02:59:30.260Z,11.54
2018-06-23T03:00:30.255Z,11.37
2018-06-23T03:01:30.253Z,11.47
2018-06-23T03:02:30.254Z,11.47
2018-06-23T03:03:30.246Z,11.60
2018-06-23T03:04:30.247Z,11.59
2018-06-23T03:05:30.243Z,11.60
2018-06-23T03:06:30.238Z,11.62
2018-06-23T03:07:30.238Z,11.62
2018-06-23T03:08:30.234Z,11.63
2018-06-23T03:09:30.231Z,11.66
2018-06-23T03:10:30.227Z,11.65
2018-06-23T03:11:30.227Z,11.62
2018-06-23T03:12:30.222Z,11.62
2018-06-23T03:13:30.221Z,11.63
2018-06-23T03:14:30.216Z,11.63
2018-06-23T03:15:30.214Z,11.73
2018-06-23T03:16:30.211Z,11.81
2018-06-23T03:17:30.209Z,11.77
2018-06-23T03:18:30.207Z,11.70
2018-06-23T03:19:30.206Z,11.80
2018-06-23T03:20:30.201Z,11.77
2018-06-23T03:21:30.199Z,11.73
2018-06-23T03:22:30.195Z,11.70
2018-06-23T03:23:30.192Z,11.69
2018-06-23T03:24:30.189Z,11.69
2018-06-23T03:25:30.186Z,11.75
2018-06-23T03:26:30.187Z,11.77
2018-06-23T03:27:30.183Z,11.78
2018-06-23T03:28:30.183Z,11.78
2018-06-23T03:29:30.179Z,11.84
2018-06-23T03:30:30.178Z,11.84
2018-06-23T03:31:30.173Z,11.83
2018-06-23T03:32:30.172Z,11.68
2018-06-23T03:33:30.166Z,11.66
2018-06-23T03:34:30.162Z,11.69
2018-06-23T03:35:30.161Z,11.87
2018-06-23T03:36:30.165Z,11.81
2018-06-23T03:37:30.157Z,11.77
2018-06-23T03:38:30.154Z,11.73
2018-06-23T03:39:30.150Z,11.69
2018-06-23T03:40:30.148Z,11.80
2018-06-23T03:41:30.145Z,11.86
2018-06-23T03:42:30.142Z,11.87
2018-06-23T03:43:30.141Z,11.86
2018-06-23T03:44:30.139Z,11.84
2018-06-23T03:45:30.135Z,11.83
2018-06-23T03:46:30.133Z,11.62
2018-06-23T03:47:30.161Z,11.62
2018-06-23T03:48:30.129Z,11.68
2018-06-23T03:49:30.129Z,11.65
2018-06-23T03:50:30.122Z,11.50
2018-06-23T03:51:30.122Z,11.50
2018-06-23T03:52:30.119Z,11.50
2018-06-23T03:53:30.115Z,11.47
2018-06-23T03:54:30.113Z,11.41
2018-06-23T03:55:30.109Z,11.40
2018-06-23T03:56:30.108Z,11.22
2018-06-23T03:57:30.106Z,11.29
2018-06-23T03:58:30.103Z,11.22
2018-06-23T03:59:30.100Z,11.08
2018-06-23T04:00:30.097Z,11.22
2018-06-23T04:01:30.094Z,11.11
2018-06-23T04:02:30.091Z,11.22
2018-06-23T04:03:30.089Z,11.23
2018-06-23T04:04:30.087Z,11.27
2018-06-23T04:05:30.084Z,11.25
2018-06-23T04:06:30.079Z,11.26
2018-06-23T04:07:30.078Z,11.25
2018-06-23T04:08:30.075Z,11.18
2018-06-23T04:09:30.072Z,11.15
2018-06-23T04:10:30.068Z,11.10
2018-06-23T04:11:30.111Z,11.19
2018-06-23T04:12:30.063Z,11.12
2018-06-23T04:13:30.061Z,11.10
2018-06-23T04:14:30.057Z,11.18
2018-06-23T04:15:30.055Z,11.12
2018-06-23T04:16:30.053Z,11.14
2018-06-23T04:17:30.050Z,11.26
2018-06-23T04:18:30.049Z,11.37
2018-06-23T04:19:30.044Z,11.43
2018-06-23T04:20:30.042Z,11.36
2018-06-23T04:21:30.039Z,11.35
2018-06-23T04:22:30.037Z,11.45
2018-06-23T04:23:30.032Z,11.30
2018-06-23T04:24:30.030Z,11.35
2018-06-23T04:25:30.027Z,11.37
2018-06-23T04:26:30.025Z,11.33
2018-06-23T04:27:30.021Z,11.32
2018-06-23T04:28:30.018Z,11.26
2018-06-23T04:29:30.016Z,11.35
2018-06-23T04:30:30.017Z,11.33
2018-06-23T04:31:30.009Z,11.36
2018-06-23T04:32:30.007Z,11.35
2018-06-23T04:33:30.004Z,11.44
2018-06-23T04:34:30.000Z,11.45
2018-06-23T04:35:29.999Z,11.51
2018-06-23T04:36:29.997Z,11.45
2018-06-23T04:37:29.993Z,11.50
2018-06-23T04:38:29.990Z,11.48
2018-06-23T04:39:29.988Z,11.35
2018-06-23T04:40:29.985Z,11.35
2018-06-23T04:41:29.983Z,11.50
2018-06-23T04:42:29.978Z,11.48
2018-06-23T04:43:29.976Z,11.55
2018-06-23T04:44:29.974Z,11.55
2018-06-23T04:45:29.972Z,11.63
2018-06-23T04:46:29.968Z,11.68
2018-06-23T04:47:29.965Z,11.59
2018-06-23T04:48:29.964Z,11.48
2018-06-23T04:49:29.961Z,11.47
2018-06-23T04:50:29.957Z,11.48
2018-06-23T04:51:29.955Z,11.54
2018-06-23T04:52:29.957Z,11.45
2018-06-23T04:53:29.951Z,11.55
2018-06-23T04:54:29.945Z,11.51
2018-06-23T04:55:29.945Z,11.52
2018-06-23T04:56:29.944Z,11.36
2018-06-23T04:57:29.940Z,11.47
2018-06-23T04:58:29.984Z,11.47
2018-06-23T04:59:29.943Z,11.50
2018-06-23T05:00:29.936Z,11.60
2018-06-23T05:01:29.928Z,11.54
2018-06-23T05:02:29.927Z,11.66
2018-06-23T05:03:29.923Z,11.77
2018-06-23T05:04:29.925Z,11.68
2018-06-23T05:05:29.919Z,11.80
2018-06-23T05:06:29.914Z,11.84
2018-06-23T05:07:29.913Z,11.72
2018-06-23T05:08:29.911Z,11.83
2018-06-23T05:09:29.908Z,11.77
2018-06-23T05:10:29.904Z,11.81
2018-06-23T05:11:29.901Z,11.83
2018-06-23T05:12:29.903Z,11.88
2018-06-23T05:13:29.898Z,11.81
2018-06-23T05:14:29.895Z,11.87
2018-06-23T05:15:29.893Z,11.87
2018-06-23T05:16:29.891Z,11.95
2018-06-23T05:17:29.891Z,12.00
2018-06-23T05:18:29.885Z,12.10
2018-06-23T05:19:29.882Z,12.03
2018-06-23T05:20:29.883Z,12.04
2018-06-23T05:21:29.880Z,12.03
2018-06-23T05:22:29.876Z,12.06
2018-06-23T05:23:29.874Z,12.02
2018-06-23T05:24:29.872Z,11.97
2018-06-23T05:25:29.869Z,11.95
2018-06-23T05:26:29.867Z,11.90
2018-06-23T05:27:29.865Z,11.97
2018-06-23T05:28:29.865Z,11.91
2018-06-23T05:29:29.859Z,12.06
2018-06-23T05:30:29.859Z,11.99
2018-06-23T05:31:29.856Z,11.90
2018-06-23T05:32:29.854Z,12.06
2018-06-23T05:33:29.853Z,12.03
2018-06-23T05:34:29.848Z,12.07
2018-06-23T05:35:29.847Z,12.10
2018-06-23T05:36:29.845Z,12.04
2018-06-23T05:37:29.841Z,12.18
2018-06-23T05:38:29.840Z,12.40
2018-06-23T05:39:29.838Z,12.49
2018-06-23T05:40:29.836Z,12.67
2018-06-23T05:41:29.833Z,12.73
2018-06-23T05:42:29.831Z,13.05
2018-06-23T05:43:29.830Z,13.33
2018-06-23T05:44:29.828Z,13.39
2018-06-23T05:45:29.825Z,13.41
2018-06-23T05:46:29.823Z,13.85
2018-06-23T05:47:29.823Z,14.18
2018-06-23T05:48:29.822Z,13.85
2018-06-23T05:49:29.820Z,13.86
2018-06-23T05:50:29.819Z,13.68
2018-06-23T05:51:29.816Z,13.38
2018-06-23T05:52:29.815Z,13.31
2018-06-23T05:53:29.817Z,13.42
2018-06-23T05:54:29.815Z,13.15
2018-06-23T05:55:29.814Z,13.16
2018-06-23T05:56:29.813Z,13.16
2018-06-23T05:57:29.813Z,13.19
2018-06-23T05:58:29.812Z,13.44
2018-06-23T05:59:29.811Z,13.22
2018-06-23T06:00:29.811Z,13.35
2018-06-23T06:01:29.810Z,13.47
2018-06-23T06:02:29.809Z,13.56
2018-06-23T06:03:29.807Z,13.62
2018-06-23T06:04:29.808Z,13.62
2018-06-23T06:05:29.812Z,13.65
2018-06-23T06:06:29.805Z,13.67
2018-06-23T06:07:29.806Z,14.10
2018-06-23T06:08:29.803Z,14.43
2018-06-23T06:09:29.804Z,14.62
2018-06-23T06:10:29.803Z,14.66
2018-06-23T06:11:29.803Z,14.51
2018-06-23T06:12:29.804Z,14.17
2018-06-23T06:13:29.803Z,14.23
2018-06-23T06:14:29.838Z,14.35
2018-06-23T06:15:29.805Z,14.59
2018-06-23T06:16:29.802Z,14.53
2018-06-23T06:17:29.803Z,14.60
2018-06-23T06:18:29.803Z,14.69
2018-06-23T06:19:29.804Z,14.41
2018-06-23T06:20:29.806Z,14.37
2018-06-23T06:21:29.803Z,14.41
2018-06-23T06:22:29.804Z,14.54
2018-06-23T06:23:29.805Z,14.48
2018-06-23T06:24:29.804Z,14.65
2018-06-23T06:25:29.807Z,14.89
2018-06-23T06:26:29.804Z,14.88
2018-06-23T06:27:29.807Z,14.82
2018-06-23T06:28:29.807Z,14.62
2018-06-23T06:29:29.835Z,14.65
2018-06-23T06:30:29.808Z,14.69
2018-06-23T06:31:29.809Z,14.73
2018-06-23T06:32:29.809Z,14.65
2018-06-23T06:33:29.811Z,14.65
2018-06-23T06:34:29.812Z,14.77
2018-06-23T06:35:29.812Z,14.78
2018-06-23T06:36:29.813Z,14.68
2018-06-23T06:37:29.813Z,14.77
2018-06-23T06:38:29.813Z,14.72
2018-06-23T06:39:29.815Z,14.69
2018-06-23T06:40:29.817Z,14.84
2018-06-23T06:41:29.817Z,14.78
2018-06-23T06:42:29.817Z,14.96
2018-06-23T06:43:29.819Z,14.77
2018-06-23T06:44:29.850Z,14.78
2018-06-23T06:45:29.828Z,15.06
2018-06-23T06:46:29.822Z,15.07
2018-06-23T06:47:29.824Z,15.40
2018-06-23T06:48:29.824Z,15.62
2018-06-23T06:49:29.824Z,15.57
2018-06-23T06:50:29.825Z,15.58
2018-06-23T06:51:29.826Z,15.54
2018-06-23T06:52:29.828Z,15.42
2018-06-23T06:53:29.829Z,15.25
2018-06-23T06:54:29.830Z,14.92
2018-06-23T06:55:29.831Z,14.72
2018-06-23T06:56:29.832Z,14.82
2018-06-23T06:57:29.833Z,14.91
2018-06-23T06:58:29.834Z,14.86
2018-06-23T06:59:29.835Z,14.94
2018-06-23T07:00:29.836Z,14.92
2018-06-23T07:01:29.837Z,14.89
2018-06-23T07:02:29.836Z,14.78
2018-06-23T07:03:29.854Z,14.60
2018-06-23T07:04:29.838Z,14.63
2018-06-23T07:05:29.841Z,14.81
2018-06-23T07:06:29.840Z,14.91
2018-06-23T07:07:29.841Z,15.04
2018-06-23T07:08:29.842Z,15.07
2018-06-23T07:09:29.842Z,15.14
2018-06-23T07:10:29.843Z,15.19
2018-06-23T07:11:29.844Z,15.33
2018-06-23T07:12:29.847Z,15.25
2018-06-23T07:13:29.846Z,15.29
2018-06-23T07:14:29.846Z,15.25
2018-06-23T07:15:29.906Z,15.22
2018-06-23T07:16:29.848Z,15.19
2018-06-23T07:17:29.897Z,15.06
2018-06-23T07:18:29.848Z,15.21
2018-06-23T07:19:29.850Z,15.31
2018-06-23T07:20:29.851Z,15.39
2018-06-23T07:21:29.852Z,15.33
2018-06-23T07:22:29.850Z,15.35
2018-06-23T07:23:29.907Z,15.57
2018-06-23T07:24:29.853Z,15.79
2018-06-23T07:25:29.854Z,15.86
2018-06-23T07:26:29.855Z,16.13
2018-06-23T07:27:29.855Z,16.05
2018-06-23T07:28:29.859Z,16.08
2018-06-23T07:29:29.859Z,15.94
2018-06-23T07:30:29.860Z,16.10
2018-06-23T07:31:29.858Z,16.12
2018-06-23T07:32:29.862Z,15.90
2018-06-23T07:33:29.863Z,16.05
2018-06-23T07:34:29.905Z,16.41
2018-06-23T07:35:29.865Z,16.75
2018-06-23T07:36:29.867Z,16.42
2018-06-23T07:37:29.870Z,16.05
2018-06-23T07:38:29.872Z,17.01
2018-06-23T07:39:29.873Z,17.39
2018-06-23T07:40:29.875Z,18.40
2018-06-23T07:41:29.878Z,19.37
2018-06-23T07:42:29.879Z,19.70
2018-06-23T07:43:29.883Z,19.02
2018-06-23T07:44:29.887Z,18.11
2018-06-23T07:45:29.890Z,17.95
2018-06-23T07:46:29.897Z,17.26
2018-06-23T07:47:29.899Z,17.68
2018-06-23T07:48:29.904Z,17.22
2018-06-23T07:49:29.908Z,16.96
2018-06-23T07:50:29.913Z,16.90
2018-06-23T07:51:29.917Z,16.76
2018-06-23T07:52:29.923Z,17.04
2018-06-23T07:53:29.928Z,16.86
2018-06-23T07:54:29.932Z,16.87
2018-06-23T07:55:29.937Z,16.86
2018-06-23T07:56:29.943Z,17.01
2018-06-23T07:57:29.946Z,17.33
2018-06-23T07:58:29.951Z,17.74
2018-06-23T07:59:29.956Z,18.03
2018-06-23T08:00:29.962Z,18.22
2018-06-23T08:01:29.971Z,17.90
2018-06-23T08:02:29.970Z,17.30
2018-06-23T08:03:29.975Z,16.96
2018-06-23T08:04:29.980Z,17.08
2018-06-23T08:05:29.986Z,17.06
2018-06-23T08:06:29.997Z,17.16
2018-06-23T08:07:29.994Z,17.49
2018-06-23T08:08:30.000Z,18.43
2018-06-23T08:09:30.007Z,18.52
2018-06-23T08:10:30.008Z,18.16
2018-06-23T08:11:30.014Z,18.10
2018-06-23T08:12:30.020Z,18.50
2018-06-23T08:13:30.024Z,19.71
2018-06-23T08:14:30.029Z,19.95
2018-06-23T08:15:30.035Z,20.44
2018-06-23T08:16:30.042Z,18.71
2018-06-23T08:17:30.044Z,17.67
2018-06-23T08:18:30.100Z,17.23
2018-06-23T08:19:30.057Z,17.76
2018-06-23T08:20:30.063Z,17.78
2018-06-23T08:21:30.068Z,17.39
2018-06-23T08:22:30.075Z,17.97
2018-06-23T08:23:30.080Z,17.52
2018-06-23T08:24:30.089Z,16.90
2018-06-23T08:25:30.093Z,18.34
2018-06-23T08:26:30.141Z,18.95
2018-06-23T08:27:30.104Z,18.40
2018-06-23T08:28:30.111Z,19.02
2018-06-23T08:29:30.116Z,18.41
2018-06-23T08:30:30.123Z,18.55
2018-06-23T08:31:30.130Z,18.50
2018-06-23T08:32:30.135Z,18.34
2018-06-23T08:33:30.142Z,18.56
2018-06-23T08:34:30.148Z,18.81
2018-06-23T08:35:30.154Z,18.34
2018-06-23T08:36:30.160Z,18.78
2018-06-23T08:37:30.168Z,18.96
2018-06-23T08:38:30.173Z,18.41
2018-06-23T08:39:30.181Z,18.15
2018-06-23T08:40:30.186Z,17.94
2018-06-23T08:41:30.192Z,18.58
2018-06-23T08:42:30.198Z,18.31
2018-06-23T08:43:30.205Z,19.64
2018-06-23T08:44:30.216Z,19.96
2018-06-23T08:45:30.219Z,20.13
2018-06-23T08:46:30.225Z,20.43
2018-06-23T08:47:30.233Z,20.59
2018-06-23T08:48:30.245Z,20.80
2018-06-23T08:49:30.249Z,21.48
2018-06-23T08:50:30.255Z,22.29
2018-06-23T08:51:30.261Z,22.99
2018-06-23T08:52:30.271Z,22.83
2018-06-23T08:53:30.281Z,21.03
2018-06-23T08:54:30.290Z,20.16
2018-06-23T08:55:30.296Z,19.08
2018-06-23T08:56:30.307Z,18.89
2018-06-23T08:57:30.317Z,19.37
2018-06-23T08:58:30.324Z,19.18
2018-06-23T08:59:30.333Z,18.96
2018-06-23T09:00:30.343Z,18.52
2018-06-23T09:01:30.353Z,18.40
2018-06-23T09:02:30.362Z,18.41
2018-06-23T09:03:30.368Z,17.83
2018-06-23T09:04:30.378Z,18.04
2018-06-23T09:05:30.385Z,19.30
2018-06-23T09:06:30.393Z,19.29
2018-06-23T09:07:30.402Z,19.02
2018-06-23T09:08:30.409Z,19.12
2018-06-23T09:09:30.451Z,19.89
2018-06-23T09:10:30.423Z,20.40
2018-06-23T09:11:30.430Z,20.59
2018-06-23T09:12:30.442Z,20.14
2018-06-23T09:13:30.450Z,20.41
2018-06-23T09:14:30.455Z,20.41
2018-06-23T09:15:30.464Z,20.92
2018-06-23T09:16:30.473Z,20.51
2018-06-23T09:17:30.481Z,20.41
2018-06-23T09:18:30.492Z,20.82
2018-06-23T09:19:30.498Z,20.31
2018-06-23T09:20:30.508Z,19.86
2018-06-23T09:21:30.516Z,19.02
2018-06-23T09:22:30.523Z,18.84
2018-06-23T09:23:30.533Z,18.70
2018-06-23T09:24:30.542Z,18.40
2018-06-23T09:25:30.564Z,18.23
2018-06-23T09:26:30.561Z,18.23
2018-06-23T09:27:30.565Z,19.11
2018-06-23T09:28:30.574Z,20.24
2018-06-23T09:29:30.583Z,20.72
2018-06-23T09:30:30.590Z,20.55
2018-06-23T09:31:30.597Z,19.76
2018-06-23T09:32:30.606Z,19.40
2018-06-23T09:33:30.612Z,20.95
2018-06-23T09:34:30.635Z,20.00
2018-06-23T09:35:30.627Z,19.69
2018-06-23T09:36:30.639Z,19.58
2018-06-23T09:37:30.652Z,19.86
2018-06-23T09:38:30.652Z,20.07
2018-06-23T09:39:30.660Z,20.09
2018-06-23T09:40:30.668Z,19.89
2018-06-23T09:41:30.675Z,19.84
2018-06-23T09:42:30.682Z,19.92
2018-06-23T09:43:30.691Z,20.13
2018-06-23T09:44:30.699Z,20.16
2018-06-23T09:45:30.708Z,19.59
2018-06-23T09:46:30.715Z,19.27
2018-06-23T09:47:30.723Z,19.22
2018-06-23T09:48:30.730Z,18.86
2018-06-23T09:49:30.738Z,18.31
2018-06-23T09:50:30.745Z,18.52
2018-06-23T09:51:30.753Z,18.41
2018-06-23T09:52:30.760Z,18.92
2018-06-23T09:53:30.767Z,20.43
2018-06-23T09:54:30.774Z,21.58
2018-06-23T09:55:30.783Z,20.88
2018-06-23T09:56:30.790Z,20.69
2018-06-23T09:57:30.798Z,19.64
2018-06-23T09:58:30.805Z,19.29
2018-06-23T09:59:30.811Z,19.56
2018-06-23T10:00:30.819Z,19.67
2018-06-23T10:01:31.027Z,19.99
2018-06-23T10:02:30.833Z,20.58
2018-06-23T10:03:30.841Z,20.40
2018-06-23T10:04:30.848Z,20.13
2018-06-23T10:05:30.854Z,19.64
2018-06-23T10:06:30.861Z,19.36
2018-06-23T10:07:30.875Z,19.31
2018-06-23T10:08:30.936Z,18.88
2018-06-23T10:09:30.884Z,18.73
2018-06-23T10:10:30.892Z,18.93
2018-06-23T10:11:30.939Z,18.96
2018-06-23T10:12:30.904Z,18.92
2018-06-23T10:13:30.912Z,19.29
2018-06-23T10:14:30.917Z,20.03
2018-06-23T10:15:30.980Z,20.56
2018-06-23T10:16:30.932Z,19.69
2018-06-23T10:17:30.938Z,19.31
2018-06-23T10:18:30.944Z,18.95
2018-06-23T10:19:30.950Z,18.98
2018-06-23T10:20:30.957Z,19.36
2018-06-23T10:21:31.023Z,19.31
2018-06-23T10:22:30.972Z,19.41
2018-06-23T10:23:30.976Z,19.71
2018-06-23T10:24:31.031Z,20.50
2018-06-23T10:25:30.989Z,20.41
2018-06-23T10:26:30.995Z,19.73
2018-06-23T10:27:31.014Z,19.45
2018-06-23T10:28:31.008Z,18.81
2018-06-23T10:29:31.014Z,18.81
2018-06-23T10:30:31.021Z,18.78
2018-06-23T10:31:31.028Z,18.83
2018-06-23T10:32:31.032Z,19.04
2018-06-23T10:33:31.038Z,19.09
2018-06-23T10:34:31.043Z,19.00
2018-06-23T10:35:31.052Z,19.19
2018-06-23T10:36:31.056Z,19.29
2018-06-23T10:37:31.061Z,19.21
2018-06-23T10:38:31.068Z,18.89
2018-06-23T10:39:31.075Z,18.96
2018-06-23T10:40:31.080Z,19.12
2018-06-23T10:41:31.085Z,19.00
2018-06-23T10:42:31.090Z,19.55
2018-06-23T10:43:31.097Z,19.14
2018-06-23T10:44:31.102Z,19.49
2018-06-23T10:45:31.111Z,19.81
2018-06-23T10:46:31.114Z,20.16
2018-06-23T10:47:31.120Z,20.62
2018-06-23T10:48:31.125Z,20.55
2018-06-23T10:49:31.132Z,20.39
2018-06-23T10:50:31.137Z,20.07
2018-06-23T10:51:31.144Z,20.41
2018-06-23T10:52:31.153Z,20.41
2018-06-23T10:53:31.155Z,19.81
2018-06-23T10:54:31.161Z,19.62
2018-06-23T10:55:31.168Z,19.02
2018-06-23T10:56:31.173Z,18.70
2018-06-23T10:57:31.180Z,18.83
2018-06-23T10:58:31.186Z,18.68
2018-06-23T10:59:31.192Z,18.77
2018-06-23T11:00:31.197Z,18.81
2018-06-23T11:01:31.209Z,18.74
2018-06-23T11:02:31.212Z,18.95
2018-06-23T11:03:31.216Z,18.95
2018-06-23T11:04:31.279Z,18.93
2018-06-23T11:05:31.227Z,19.14
2018-06-23T11:06:31.232Z,19.19
2018-06-23T11:07:31.237Z,19.56
2018-06-23T11:08:31.243Z,19.96
2018-06-23T11:09:31.249Z,20.51
2018-06-23T11:10:31.254Z,20.69
2018-06-23T11:11:31.262Z,20.58
2018-06-23T11:12:31.265Z,20.10
2018-06-23T11:13:31.275Z,19.71
2018-06-23T11:14:31.275Z,19.86
2018-06-23T11:15:31.282Z,20.03
2018-06-23T11:16:31.288Z,19.55
2018-06-23T11:17:31.292Z,19.67
2018-06-23T11:18:31.296Z,19.89
2018-06-23T11:19:31.302Z,19.71
2018-06-23T11:20:31.308Z,19.39
2018-06-23T11:21:31.314Z,19.76
2018-06-23T11:22:31.320Z,20.06
2018-06-23T11:23:31.325Z,20.69
2018-06-23T11:24:31.358Z,20.77
2018-06-23T11:25:31.337Z,20.21
2018-06-23T11:26:31.341Z,19.76
2018-06-23T11:27:31.349Z,19.69
2018-06-23T11:28:31.354Z,19.52
2018-06-23T11:29:31.357Z,19.59
2018-06-23T11:30:31.364Z,19.88
2018-06-23T11:31:31.370Z,19.82
2018-06-23T11:32:31.375Z,20.00
2018-06-23T11:33:31.381Z,20.00
2018-06-23T11:34:31.386Z,20.06
2018-06-23T11:35:31.391Z,20.13
2018-06-23T11:36:31.396Z,19.81
2018-06-23T11:37:31.403Z,19.48
2018-06-23T11:38:31.407Z,19.33
2018-06-23T11:39:31.413Z,19.51
2018-06-23T11:40:31.419Z,19.31
2018-06-23T11:41:31.428Z,19.27
2018-06-23T11:42:31.430Z,19.19
2018-06-23T11:43:31.436Z,19.12
2018-06-23T11:44:31.442Z,19.12
2018-06-23T11:45:31.448Z,19.37
2018-06-23T11:46:31.468Z,19.45
2018-06-23T11:47:31.459Z,19.56
2018-06-23T11:48:31.463Z,19.62
2018-06-23T11:49:31.467Z,19.40
2018-06-23T11:50:31.475Z,19.29
2018-06-23T11:51:31.478Z,19.24
2018-06-23T11:52:31.535Z,19.49
2018-06-23T11:53:31.488Z,19.51
2018-06-23T11:54:31.492Z,19.51
2018-06-23T11:55:31.498Z,19.47
2018-06-23T11:56:31.504Z,19.47
2018-06-23T11:57:31.509Z,19.73
2018-06-23T11:58:31.514Z,19.85
2018-06-23T11:59:31.519Z,20.43
2018-06-23T12:00:31.525Z,20.62
2018-06-23T12:01:31.530Z,20.78
2018-06-23T12:02:31.535Z,20.50
2018-06-23T12:03:31.539Z,20.07
2018-06-23T12:04:31.546Z,20.19
2018-06-23T12:05:31.551Z,20.00
2018-06-23T12:06:31.556Z,19.89
2018-06-23T12:07:31.561Z,19.96
2018-06-23T12:08:31.574Z,20.14
2018-06-23T12:09:31.575Z,19.89
2018-06-23T12:10:31.576Z,20.03
2018-06-23T12:11:31.583Z,19.71
2018-06-23T12:12:31.589Z,19.51
2018-06-23T12:13:31.593Z,19.63
2018-06-23T12:14:31.598Z,19.55
2018-06-23T12:15:31.605Z,19.59
2018-06-23T12:16:31.608Z,19.48
2018-06-23T12:17:31.614Z,19.39
2018-06-23T12:18:31.618Z,19.41
2018-06-23T12:19:31.624Z,19.21
2018-06-23T12:20:31.629Z,19.27
2018-06-23T12:21:31.634Z,19.19
2018-06-23T12:22:31.639Z,19.04
2018-06-23T12:23:31.643Z,18.80
2018-06-23T12:24:31.649Z,18.75
2018-06-23T12:25:31.672Z,18.77
2018-06-23T12:26:31.662Z,18.75
2018-06-23T12:27:31.663Z,18.93
2018-06-23T12:28:31.669Z,18.92
2018-06-23T12:29:31.676Z,19.08
2018-06-23T12:30:31.696Z,19.14
2018-06-23T12:31:31.682Z,19.31
2018-06-23T12:32:31.686Z,19.47
2018-06-23T12:33:31.690Z,19.76
2018-06-23T12:34:31.785Z,20.03
2018-06-23T12:35:31.700Z,20.24
2018-06-23T12:36:31.707Z,19.94
2018-06-23T12:37:31.710Z,19.67
2018-06-23T12:38:31.713Z,19.47
2018-06-23T12:39:31.718Z,19.59
2018-06-23T12:40:31.724Z,19.64
2018-06-23T12:41:31.766Z,19.51
2018-06-23T12:42:31.733Z,19.48
2018-06-23T12:43:31.737Z,19.62
2018-06-23T12:44:31.742Z,19.67
2018-06-23T12:45:31.746Z,19.49
2018-06-23T12:46:31.750Z,19.31
2018-06-23T12:47:31.755Z,19.21
2018-06-23T12:48:31.790Z,19.45
2018-06-23T12:49:31.765Z,19.51
2018-06-23T12:50:31.768Z,19.84
2018-06-23T12:51:31.776Z,19.36
2018-06-23T12:52:31.780Z,19.24